createdAt,value
2023-04-17T00:01:30.549Z,17.33
2023-04-17T00:03:57.908Z,19.00
2023-04-17T00:06:24.642Z,17.15
2023-04-17T00:08:51.076Z,15.77
2023-04-17T00:11:18.737Z,18.33
2023-04-17T00:13:45.659Z,20.33
2023-04-17T00:16:13.531Z,17.52
2023-04-17T00:18:40.336Z,15.93
2023-04-17T00:21:06.714Z,17.60
2023-04-17T00:23:33.066Z,17.40
2023-04-17T00:25:59.438Z,17.50
2023-04-17T00:28:25.875Z,18.35
2023-04-17T00:30:52.285Z,19.95
2023-04-17T00:33:18.721Z,16.52
2023-04-17T00:35:45.167Z,18.77
2023-04-17T00:38:11.553Z,20.88
2023-04-17T00:40:37.916Z,21.17
2023-04-17T00:43:04.649Z,21.95
2023-04-17T00:45:31.204Z,20.35
2023-04-17T00:47:58.923Z,19.45
2023-04-17T00:50:30.060Z,19.20
2023-04-17T00:52:57.080Z,19.40
2023-04-17T00:55:23.675Z,20.95
2023-04-17T00:57:50.543Z,20.35
2023-04-17T01:00:18.111Z,19.30
2023-04-17T01:02:45.571Z,19.00
2023-04-17T01:05:12.202Z,18.75
2023-04-17T01:07:39.377Z,18.45
2023-04-17T01:10:06.458Z,18.77
2023-04-17T01:12:32.855Z,17.58
2023-04-17T01:14:59.357Z,19.23
2023-04-17T01:17:29.115Z,18.17
2023-04-17T01:19:55.654Z,18.73
2023-04-17T01:22:22.124Z,18.38
2023-04-17T01:24:49.016Z,17.67
2023-04-17T01:27:15.495Z,17.27
2023-04-17T01:29:45.406Z,16.13
2023-04-17T01:32:11.972Z,17.10
2023-04-17T01:34:38.553Z,16.92
2023-04-17T01:37:05.317Z,13.70
2023-04-17T01:39:31.849Z,14.45
2023-04-17T01:41:58.313Z,13.13
2023-04-17T01:44:24.788Z,15.95
2023-04-17T01:46:51.438Z,14.52
2023-04-17T01:49:17.851Z,16.75
2023-04-17T01:51:44.323Z,19.08
2023-04-17T01:54:10.930Z,16.48
2023-04-17T01:56:37.510Z,17.50
2023-04-17T01:59:03.922Z,16.55
2023-04-17T02:01:30.936Z,17.42
2023-04-17T02:03:57.511Z,16.00
2023-04-17T02:06:24.048Z,16.33
2023-04-17T02:08:50.376Z,15.40
2023-04-17T02:11:17.286Z,16.13
2023-04-17T02:13:43.660Z,16.08
2023-04-17T02:16:12.358Z,16.75
2023-04-17T02:18:40.112Z,17.55
2023-04-17T02:21:06.668Z,19.25
2023-04-17T02:23:33.010Z,16.92
2023-04-17T02:25:59.411Z,21.38
2023-04-17T02:28:25.810Z,21.88
2023-04-17T02:30:52.236Z,19.33
2023-04-17T02:33:18.594Z,18.48
2023-04-17T02:35:45.533Z,20.65
2023-04-17T02:38:11.949Z,19.55
2023-04-17T02:40:38.840Z,19.00
2023-04-17T02:43:05.189Z,17.77
2023-04-17T02:45:31.900Z,21.90
2023-04-17T02:47:58.448Z,20.52
2023-04-17T02:50:24.943Z,22.08
2023-04-17T02:52:51.305Z,18.10
2023-04-17T02:55:17.863Z,21.05
2023-04-17T02:57:44.212Z,21.65
2023-04-17T03:00:14.006Z,23.25
2023-04-17T03:02:41.225Z,21.13
2023-04-17T03:05:08.109Z,20.95
2023-04-17T03:07:34.478Z,21.48
2023-04-17T03:10:00.801Z,18.77
2023-04-17T03:12:27.201Z,20.55
2023-04-17T03:14:53.561Z,21.70
2023-04-17T03:17:20.773Z,21.23
2023-04-17T03:19:47.239Z,20.20
2023-04-17T03:22:13.630Z,21.67
2023-04-17T03:24:41.142Z,20.55
2023-04-17T03:27:07.767Z,21.38
2023-04-17T03:29:34.168Z,21.42
2023-04-17T03:32:00.701Z,23.88
2023-04-17T03:34:28.201Z,22.45
2023-04-17T03:36:54.705Z,22.50
2023-04-17T03:39:21.393Z,22.70
2023-04-17T03:41:47.906Z,22.45
2023-04-17T03:44:14.324Z,23.50
2023-04-17T03:46:40.714Z,22.63
2023-04-17T03:49:07.110Z,22.60
2023-04-17T03:51:33.490Z,22.33
2023-04-17T03:53:59.881Z,21.98
2023-04-17T03:56:27.086Z,23.90
2023-04-17T03:58:53.484Z,20.65
2023-04-17T04:01:19.986Z,21.45
2023-04-17T04:03:46.757Z,21.10
2023-04-17T04:06:13.243Z,18.38
2023-04-17T04:08:40.399Z,23.02
2023-04-17T04:11:06.744Z,22.50
2023-04-17T04:13:33.818Z,22.85
2023-04-17T04:16:00.635Z,22.25
2023-04-17T04:18:27.151Z,23.00
2023-04-17T04:20:53.550Z,22.13
2023-04-17T04:23:21.011Z,23.80
2023-04-17T04:25:49.470Z,25.75
2023-04-17T04:28:17.657Z,22.20
2023-04-17T04:30:50.288Z,25.17
2023-04-17T04:33:20.419Z,25.08
2023-04-17T04:35:47.740Z,24.00
2023-04-17T04:38:15.223Z,26.48
2023-04-17T04:40:43.865Z,23.23
2023-04-17T04:43:10.516Z,22.92
2023-04-17T04:45:37.099Z,21.00
2023-04-17T04:48:03.640Z,20.40
2023-04-17T04:50:30.844Z,20.27
2023-04-17T04:52:57.250Z,22.92
2023-04-17T04:55:24.254Z,21.67
2023-04-17T04:57:53.346Z,21.20
2023-04-17T05:00:20.268Z,23.42
2023-04-17T05:02:46.847Z,21.52
2023-04-17T05:05:13.430Z,20.75
2023-04-17T05:07:39.824Z,24.13
2023-04-17T05:10:06.780Z,19.80
2023-04-17T05:12:34.899Z,23.20
2023-04-17T05:15:01.385Z,24.23
2023-04-17T05:17:27.766Z,23.83
2023-04-17T05:19:54.171Z,23.88
2023-04-17T05:22:21.487Z,24.50
2023-04-17T05:24:47.892Z,24.45
2023-04-17T05:27:14.283Z,22.63
2023-04-17T05:29:40.629Z,23.77
2023-04-17T05:32:08.158Z,22.63
2023-04-17T05:34:34.764Z,22.45
2023-04-17T05:37:01.368Z,23.30
2023-04-17T05:39:27.741Z,22.15
2023-04-17T05:41:54.085Z,22.83
2023-04-17T05:44:20.704Z,23.17
2023-04-17T05:46:47.141Z,21.98
2023-04-17T05:49:13.705Z,20.38
2023-04-17T05:51:40.234Z,21.10
2023-04-17T05:54:06.659Z,20.27
2023-04-17T05:56:32.991Z,21.92
2023-04-17T05:58:59.337Z,20.27
2023-04-17T06:01:26.242Z,19.67
2023-04-17T06:03:52.964Z,19.38
2023-04-17T06:06:19.632Z,20.20
2023-04-17T06:08:46.166Z,19.83
2023-04-17T06:11:12.546Z,19.27
2023-04-17T06:13:38.916Z,19.27
2023-04-17T06:16:05.539Z,18.27
2023-04-17T06:18:31.868Z,19.02
2023-04-17T06:20:58.335Z,18.33
2023-04-17T06:23:24.896Z,18.35
2023-04-17T06:25:51.269Z,17.67
2023-04-17T06:28:17.841Z,18.40
2023-04-17T06:30:44.211Z,18.08
2023-04-17T06:33:10.624Z,19.50
2023-04-17T06:35:37.625Z,19.70
2023-04-17T06:38:04.308Z,19.90
2023-04-17T06:40:30.730Z,18.63
2023-04-17T06:42:57.087Z,18.15
2023-04-17T06:45:23.493Z,17.13
2023-04-17T06:47:50.009Z,16.63
2023-04-17T06:50:16.862Z,15.88
2023-04-17T06:52:43.309Z,16.00
2023-04-17T06:55:10.330Z,15.25
2023-04-17T06:57:36.757Z,16.25
2023-04-17T07:00:03.968Z,15.30
2023-04-17T07:02:30.632Z,16.42
2023-04-17T07:04:57.409Z,16.13
2023-04-17T07:07:25.432Z,15.52
2023-04-17T07:09:51.914Z,17.80
2023-04-17T07:12:18.295Z,15.85
2023-04-17T07:14:44.645Z,17.33
2023-04-17T07:17:11.031Z,18.15
2023-04-17T07:19:37.581Z,18.33
2023-04-17T07:22:05.668Z,17.00
2023-04-17T07:24:34.882Z,18.73
2023-04-17T07:27:04.534Z,17.73
2023-04-17T07:29:30.910Z,18.42
2023-04-17T07:31:57.345Z,18.65
2023-04-17T07:34:25.190Z,18.48
2023-04-17T07:36:54.675Z,18.73
2023-04-17T07:39:21.298Z,18.52
2023-04-17T07:41:48.879Z,18.38
2023-04-17T07:44:15.291Z,17.35
2023-04-17T07:46:41.721Z,17.20
2023-04-17T07:49:11.479Z,17.73
2023-04-17T07:51:41.014Z,18.27
2023-04-17T07:54:07.611Z,17.30
2023-04-17T07:56:34.789Z,17.60
2023-04-17T07:59:01.277Z,17.63
2023-04-17T08:01:27.868Z,17.30
2023-04-17T08:03:55.469Z,17.83
2023-04-17T08:06:22.139Z,17.27
2023-04-17T08:08:48.649Z,16.50
2023-04-17T08:11:15.509Z,16.92
2023-04-17T08:13:42.199Z,16.52
2023-04-17T08:16:09.294Z,16.83
2023-04-17T08:18:37.603Z,17.52
2023-04-17T08:21:04.574Z,17.80
2023-04-17T08:23:31.249Z,17.65
2023-04-17T08:25:58.246Z,18.17
2023-04-17T08:28:24.994Z,17.65
2023-04-17T08:30:51.457Z,17.83
2023-04-17T08:33:18.367Z,17.13
2023-04-17T08:35:44.985Z,17.73
2023-04-17T08:38:14.038Z,17.90
2023-04-17T08:40:42.869Z,18.70
2023-04-17T08:43:15.078Z,18.65
2023-04-17T08:45:49.731Z,17.45
2023-04-17T08:48:16.238Z,16.92
2023-04-17T08:50:49.967Z,17.05
2023-04-17T08:53:20.507Z,16.55
2023-04-17T08:55:47.630Z,16.38
2023-04-17T08:58:14.999Z,15.57
2023-04-17T09:00:43.249Z,16.27
2023-04-17T09:03:12.286Z,16.13
2023-04-17T09:05:42.522Z,16.35
2023-04-17T09:08:10.074Z,15.75
2023-04-17T09:10:49.416Z,15.82
2023-04-17T09:13:17.474Z,15.13
2023-04-17T09:15:45.515Z,15.60
2023-04-17T09:18:25.926Z,14.98
2023-04-17T09:20:52.496Z,14.82
2023-04-17T09:23:19.868Z,14.73
2023-04-17T09:25:46.658Z,15.40
2023-04-17T09:28:14.654Z,14.65
2023-04-17T09:30:42.320Z,15.25
2023-04-17T09:33:10.293Z,14.13
2023-04-17T09:35:40.773Z,14.18
2023-04-17T09:38:07.415Z,14.00
2023-04-17T09:40:38.713Z,14.80
2023-04-17T09:43:07.488Z,13.82
2023-04-17T09:45:36.820Z,13.38
2023-04-17T09:48:10.519Z,12.95
2023-04-17T09:50:38.662Z,11.82
2023-04-17T09:53:07.007Z,12.82
2023-04-17T09:55:33.633Z,11.93
2023-04-17T09:58:04.835Z,12.00
2023-04-17T10:00:31.476Z,12.98
2023-04-17T10:02:59.149Z,12.65
2023-04-17T10:05:28.730Z,11.48
2023-04-17T10:07:55.556Z,11.68
2023-04-17T10:10:33.692Z,12.00
2023-04-17T10:13:02.370Z,9.27
2023-04-17T10:15:28.897Z,9.40
2023-04-17T10:17:58.350Z,7.80
2023-04-17T10:20:24.773Z,7.60
2023-04-17T10:22:56.081Z,8.18
2023-04-17T10:25:25.147Z,7.68
2023-04-17T10:27:56.278Z,8.30
2023-04-17T10:30:23.754Z,7.20
2023-04-17T10:33:19.905Z,7.15
2023-04-17T10:35:46.703Z,6.28
2023-04-17T10:38:13.211Z,7.18
2023-04-17T10:40:39.829Z,5.45
2023-04-17T10:43:23.275Z,6.18
2023-04-17T10:46:05.006Z,5.85
2023-04-17T10:48:41.567Z,5.57
2023-04-17T10:51:39.892Z,5.65
2023-04-17T10:54:10.063Z,6.07
2023-04-17T10:56:46.228Z,4.82
2023-04-17T10:59:17.003Z,5.97
2023-04-17T11:01:49.418Z,6.80
2023-04-17T11:04:20.731Z,7.13
2023-04-17T11:06:47.633Z,7.82
2023-04-17T11:09:14.770Z,7.50
2023-04-17T11:11:44.623Z,7.47
2023-04-17T11:14:16.376Z,7.13
2023-04-17T11:16:45.116Z,6.72
2023-04-17T11:19:17.372Z,6.60
2023-04-17T11:21:47.797Z,5.28
2023-04-17T11:24:14.173Z,5.75
2023-04-17T11:26:47.939Z,5.82
2023-04-17T11:29:18.412Z,4.90
2023-04-17T11:31:45.557Z,4.00
2023-04-17T11:34:12.774Z,3.78
2023-04-17T11:36:39.205Z,3.38
2023-04-17T11:39:05.774Z,3.33
2023-04-17T11:41:38.866Z,3.65
2023-04-17T11:44:08.975Z,3.25
2023-04-17T11:46:35.849Z,3.35
2023-04-17T11:49:05.508Z,3.85
2023-04-17T11:51:32.333Z,3.60
2023-04-17T11:53:59.327Z,3.33
2023-04-17T11:56:29.894Z,3.88
2023-04-17T11:58:57.616Z,3.92
2023-04-17T12:01:25.851Z,4.30
2023-04-17T12:03:56.766Z,4.20
2023-04-17T12:06:24.214Z,4.53
2023-04-17T12:08:55.656Z,4.38
2023-04-17T12:11:35.182Z,3.65
2023-04-17T12:14:03.535Z,4.05
2023-04-17T12:16:30.171Z,3.88
2023-04-17T12:18:57.286Z,4.10
2023-04-17T12:21:23.911Z,4.20
2023-04-17T12:23:50.662Z,3.72
2023-04-17T12:26:17.088Z,4.18
2023-04-17T12:28:43.489Z,3.97
2023-04-17T12:31:09.967Z,4.38
2023-04-17T12:33:36.495Z,4.78
2023-04-17T12:36:04.485Z,4.78
2023-04-17T12:38:31.396Z,4.50
2023-04-17T12:40:57.902Z,4.15
2023-04-17T12:43:24.284Z,4.25
2023-04-17T12:45:52.406Z,4.45
2023-04-17T12:48:18.769Z,4.07
2023-04-17T12:50:45.112Z,4.18
2023-04-17T12:53:13.521Z,4.75
2023-04-17T12:55:43.732Z,4.22
2023-04-17T12:58:11.512Z,4.20
2023-04-17T13:00:44.610Z,4.40
2023-04-17T13:03:11.703Z,4.10
2023-04-17T13:05:38.545Z,4.10
2023-04-17T13:08:05.964Z,4.18
2023-04-17T13:10:34.075Z,4.40
2023-04-17T13:13:02.171Z,4.57
2023-04-17T13:15:28.660Z,3.90
2023-04-17T13:17:55.131Z,4.63
2023-04-17T13:20:21.509Z,4.65
2023-04-17T13:22:48.987Z,4.22
2023-04-17T13:25:15.557Z,3.88
2023-04-17T13:27:41.963Z,4.53
2023-04-17T13:30:08.665Z,4.30
2023-04-17T13:32:35.210Z,4.60
2023-04-17T13:35:02.837Z,4.07
2023-04-17T13:37:29.303Z,4.45
2023-04-17T13:39:55.629Z,3.92
2023-04-17T13:42:22.026Z,3.67
2023-04-17T13:44:49.289Z,3.83
2023-04-17T13:47:15.718Z,3.80
2023-04-17T13:49:42.083Z,3.80
2023-04-17T13:52:08.505Z,3.30
2023-04-17T13:54:34.919Z,3.63
2023-04-17T13:57:01.352Z,3.80
2023-04-17T13:59:28.012Z,4.00
2023-04-17T14:01:54.542Z,4.10
2023-04-17T14:04:21.552Z,4.18
2023-04-17T14:06:50.234Z,4.32
2023-04-17T14:09:17.110Z,4.10
2023-04-17T14:11:43.579Z,4.10
2023-04-17T14:14:12.429Z,4.25
2023-04-17T14:16:41.868Z,4.35
2023-04-17T14:19:14.009Z,4.10
2023-04-17T14:21:41.124Z,3.70
2023-04-17T14:24:07.454Z,3.95
2023-04-17T14:26:33.897Z,3.53
2023-04-17T14:29:00.241Z,3.97
2023-04-17T14:31:26.582Z,4.22
2023-04-17T14:33:53.034Z,4.25
2023-04-17T14:36:19.461Z,3.67
2023-04-17T14:38:49.761Z,4.13
2023-04-17T14:41:16.221Z,4.03
2023-04-17T14:43:42.608Z,4.07
2023-04-17T14:46:09.098Z,3.67
2023-04-17T14:48:51.786Z,4.28
2023-04-17T14:51:22.311Z,3.50
2023-04-17T14:53:48.759Z,3.95
2023-04-17T14:56:15.883Z,3.95
2023-04-17T14:58:43.044Z,3.88
2023-04-17T15:01:09.467Z,4.05
2023-04-17T15:03:36.065Z,4.57
2023-04-17T15:06:03.384Z,3.80
2023-04-17T15:08:31.080Z,4.22
2023-04-17T15:10:58.035Z,4.18
2023-04-17T15:13:24.503Z,3.92
2023-04-17T15:15:50.861Z,3.90
2023-04-17T15:18:17.379Z,4.55
2023-04-17T15:20:43.746Z,4.35
2023-04-17T15:23:10.105Z,4.35
2023-04-17T15:25:36.631Z,4.18
2023-04-17T15:28:03.108Z,4.10
2023-04-17T15:30:29.576Z,4.30
2023-04-17T15:32:56.087Z,4.03
2023-04-17T15:35:22.573Z,3.97
2023-04-17T15:37:48.975Z,4.25
2023-04-17T15:40:16.227Z,4.28
2023-04-17T15:42:42.597Z,4.47
2023-04-17T15:45:09.727Z,4.10
2023-04-17T15:47:36.158Z,4.32
2023-04-17T15:50:02.595Z,4.88
2023-04-17T15:52:28.952Z,4.68
2023-04-17T15:54:55.361Z,4.70
2023-04-17T15:57:21.955Z,4.00
2023-04-17T15:59:48.663Z,4.45
2023-04-17T16:02:15.164Z,4.15
2023-04-17T16:04:43.544Z,4.47
2023-04-17T16:07:11.852Z,4.60
2023-04-17T16:09:39.667Z,4.30
2023-04-17T16:12:08.651Z,4.32
2023-04-17T16:14:36.298Z,4.97
2023-04-17T16:17:03.498Z,4.47
2023-04-17T16:19:30.570Z,4.55
2023-04-17T16:21:57.298Z,4.65
2023-04-17T16:24:24.759Z,4.60
2023-04-17T16:26:55.410Z,4.93
2023-04-17T16:29:22.190Z,4.43
2023-04-17T16:31:48.630Z,4.30
2023-04-17T16:34:15.325Z,4.15
2023-04-17T16:36:45.292Z,3.70
2023-04-17T16:39:14.271Z,4.63
2023-04-17T16:41:41.088Z,4.50
2023-04-17T16:44:07.478Z,4.70
2023-04-17T16:46:51.587Z,4.35
2023-04-17T16:49:20.344Z,4.03
2023-04-17T16:51:46.757Z,4.18
2023-04-17T16:54:13.535Z,3.95
2023-04-17T16:56:40.098Z,4.60
2023-04-17T16:59:06.424Z,4.55
2023-04-17T17:01:33.161Z,4.38
2023-04-17T17:03:59.654Z,4.38
2023-04-17T17:06:26.777Z,4.47
2023-04-17T17:08:55.008Z,4.28
2023-04-17T17:11:22.002Z,4.10
2023-04-17T17:13:51.250Z,4.43
2023-04-17T17:16:18.778Z,3.97
2023-04-17T17:18:47.062Z,4.97
2023-04-17T17:21:13.801Z,4.75
2023-04-17T17:23:40.516Z,4.38
2023-04-17T17:26:07.015Z,4.45
2023-04-17T17:28:34.995Z,4.70
2023-04-17T17:31:09.651Z,4.80
2023-04-17T17:33:36.918Z,5.00
2023-04-17T17:36:03.507Z,4.25
2023-04-17T17:38:32.407Z,4.18
2023-04-17T17:40:59.103Z,4.93
2023-04-17T17:43:25.672Z,4.20
2023-04-17T17:45:53.187Z,4.80
2023-04-17T17:48:20.437Z,4.20
2023-04-17T17:50:49.227Z,5.05
2023-04-17T17:53:17.536Z,4.80
2023-04-17T17:55:53.882Z,5.60
2023-04-17T17:58:21.593Z,4.60
2023-04-17T18:00:54.086Z,4.97
2023-04-17T18:03:20.894Z,5.10
2023-04-17T18:05:47.433Z,5.60
2023-04-17T18:08:14.406Z,4.93
2023-04-17T18:10:40.780Z,5.18
2023-04-17T18:13:07.330Z,5.70
2023-04-17T18:15:34.081Z,5.50
2023-04-17T18:18:00.640Z,4.82
2023-04-17T18:20:29.156Z,5.65
2023-04-17T18:22:55.672Z,4.90
2023-04-17T18:25:22.113Z,5.28
2023-04-17T18:27:48.449Z,5.28
2023-04-17T18:30:15.452Z,5.43
2023-04-17T18:32:41.825Z,5.15
2023-04-17T18:35:08.632Z,5.65
2023-04-17T18:37:34.949Z,5.47
2023-04-17T18:40:01.438Z,5.60
2023-04-17T18:42:27.793Z,5.15
2023-04-17T18:44:54.130Z,5.55
2023-04-17T18:47:20.558Z,5.70
2023-04-17T18:49:47.007Z,5.03
2023-04-17T18:52:13.391Z,4.82
2023-04-17T18:54:39.774Z,4.93
2023-04-17T18:57:06.172Z,5.70
2023-04-17T18:59:32.641Z,5.25
2023-04-17T19:01:59.023Z,5.45
2023-04-17T19:04:25.932Z,5.75
2023-04-17T19:06:52.266Z,5.75
2023-04-17T19:09:18.707Z,5.78
2023-04-17T19:11:45.646Z,5.45
2023-04-17T19:14:12.291Z,5.30
2023-04-17T19:16:38.860Z,5.82
2023-04-17T19:19:05.610Z,6.30
2023-04-17T19:21:32.679Z,5.28
2023-04-17T19:23:59.063Z,5.93
2023-04-17T19:26:25.433Z,6.50
2023-04-17T19:28:52.005Z,5.38
2023-04-17T19:31:18.459Z,5.72
2023-04-17T19:33:45.120Z,5.68
2023-04-17T19:36:11.590Z,5.80
2023-04-17T19:38:38.019Z,5.85
2023-04-17T19:41:17.248Z,6.47
2023-04-17T19:43:44.645Z,5.97
2023-04-17T19:46:13.197Z,6.32
2023-04-17T19:48:40.133Z,5.90
2023-04-17T19:51:06.795Z,6.05
2023-04-17T19:53:35.353Z,6.50
2023-04-17T19:56:02.256Z,6.00
2023-04-17T19:58:29.550Z,5.72
2023-04-17T20:00:57.311Z,5.97
2023-04-17T20:03:25.229Z,6.00
2023-04-17T20:05:51.774Z,6.32
2023-04-17T20:08:18.163Z,6.72
2023-04-17T20:10:44.530Z,6.78
2023-04-17T20:13:11.706Z,6.13
2023-04-17T20:15:38.893Z,6.45
2023-04-17T20:18:07.054Z,6.15
2023-04-17T20:20:36.147Z,7.40
2023-04-17T20:23:03.353Z,6.80
2023-04-17T20:25:29.715Z,6.75
2023-04-17T20:27:56.360Z,7.07
2023-04-17T20:30:23.660Z,6.88
2023-04-17T20:32:50.296Z,7.03
2023-04-17T20:35:17.696Z,7.25
2023-04-17T20:37:44.787Z,7.50
2023-04-17T20:40:13.801Z,7.47
2023-04-17T20:42:41.422Z,6.10
2023-04-17T20:45:09.023Z,7.05
2023-04-17T20:47:37.404Z,6.15
2023-04-17T20:50:07.256Z,5.93
2023-04-17T20:52:34.013Z,5.82
2023-04-17T20:55:00.945Z,5.25
2023-04-17T20:57:28.337Z,5.55
2023-04-17T20:59:54.657Z,5.75
2023-04-17T21:02:21.889Z,5.47
2023-04-17T21:04:48.959Z,6.25
2023-04-17T21:07:15.518Z,5.13
2023-04-17T21:09:41.935Z,5.05
2023-04-17T21:12:08.367Z,6.22
2023-04-17T21:14:37.909Z,6.20
2023-04-17T21:17:04.349Z,6.35
2023-04-17T21:19:32.178Z,6.68
2023-04-17T21:21:58.566Z,6.05
2023-04-17T21:24:25.171Z,6.18
2023-04-17T21:26:53.143Z,5.53
2023-04-17T21:29:19.457Z,6.80
2023-04-17T21:31:45.869Z,6.13
2023-04-17T21:34:12.504Z,5.50
2023-04-17T21:36:39.137Z,5.75
2023-04-17T21:39:06.569Z,5.70
2023-04-17T21:41:32.962Z,5.90
2023-04-17T21:44:02.638Z,5.82
2023-04-17T21:46:29.754Z,6.13
2023-04-17T21:48:56.184Z,5.90
2023-04-17T21:51:23.027Z,5.95
2023-04-17T21:53:49.577Z,6.32
2023-04-17T21:56:15.952Z,5.55
2023-04-17T21:58:42.392Z,6.10
2023-04-17T22:01:08.777Z,6.20
2023-04-17T22:03:35.226Z,6.15
2023-04-17T22:06:01.671Z,6.13
2023-04-17T22:08:28.044Z,6.47
2023-04-17T22:10:54.426Z,6.10
2023-04-17T22:13:20.790Z,5.63
2023-04-17T22:15:48.458Z,6.00
2023-04-17T22:18:14.928Z,6.68
2023-04-17T22:20:41.321Z,6.43
2023-04-17T22:23:07.680Z,6.32
2023-04-17T22:25:34.045Z,5.95
2023-04-17T22:28:00.391Z,6.45
2023-04-17T22:30:26.802Z,6.40
2023-04-17T22:32:53.260Z,5.93
2023-04-17T22:35:19.662Z,6.13
2023-04-17T22:37:46.060Z,5.93
2023-04-17T22:40:12.841Z,6.57
2023-04-17T22:42:39.217Z,6.25
2023-04-17T22:45:05.990Z,6.13
2023-04-17T22:47:32.409Z,6.88
2023-04-17T22:49:59.142Z,6.30
2023-04-17T22:52:25.617Z,6.72
2023-04-17T22:54:52.009Z,6.20
2023-04-17T22:57:18.330Z,7.05
2023-04-17T22:59:44.710Z,6.40
2023-04-17T23:02:11.311Z,6.22
2023-04-17T23:04:37.828Z,5.82
2023-04-17T23:07:04.262Z,6.43
2023-04-17T23:09:30.638Z,5.85
2023-04-17T23:11:57.483Z,7.15
2023-04-17T23:14:23.818Z,6.20
2023-04-17T23:16:52.445Z,5.97
2023-04-17T23:19:21.010Z,6.65
2023-04-17T23:21:47.389Z,6.25
2023-04-17T23:24:14.051Z,6.50
2023-04-17T23:26:40.721Z,7.07
2023-04-17T23:29:07.030Z,6.72
2023-04-17T23:31:33.583Z,6.95
2023-04-17T23:34:00.213Z,6.55
2023-04-17T23:36:26.753Z,6.63
2023-04-17T23:38:53.717Z,6.03
2023-04-17T23:41:22.244Z,6.80
2023-04-17T23:43:48.754Z,6.65
2023-04-17T23:46:15.314Z,7.13
2023-04-17T23:48:41.749Z,6.90
2023-04-17T23:51:08.878Z,6.22
2023-04-17T23:53:35.228Z,6.63
2023-04-17T23:56:01.938Z,7.13
2023-04-17T23:58:28.265Z,6.75
